Date,TemperatureHighF,TemperatureAvgF,TemperatureLowF,DewpointHighF,DewpointAvgF,DewpointLowF,HumidityHigh,HumidityAvg,HumidityLow,PressureMaxIn,PressureMinIn,WindSpeedMaxMPH,WindSpeedAvgMPH,GustSpeedMaxMPH,PrecipitationSumIn
2013-1-1,17,7,-3,7,-2,-8,83,68,41,0.00,40.00,6,3,13,0.00
2013-1-2,24,15,11,16,10,7,91,78,60,0.00,40.00,6,3,13,0.00
2013-1-3,24,16,12,16,11,4,88,79,61,0.00,40.00,7,5,15,0.00
2013-1-4,36,19,10,18,12,5,91,73,47,0.00,40.00,7,4,16,0.00
2013-1-5,33,15,2,20,9,-2,91,79,51,0.00,40.00,6,2,12,0.00
2013-1-6,27,20,7,23,16,4,93,84,68,0.00,40.00,7,4,13,0.01
2013-1-7,36,24,8,22,16,4,89,71,54,0.00,40.00,9,6,22,0.01
2013-1-8,47,25,6,27,19,3,94,79,42,0.00,40.00,10,3,20,0.00
2013-1-9,36,30,17,27,21,15,90,70,48,0.00,40.00,10,6,27,0.00
2013-1-10,42,29,15,31,16,10,97,64,27,0.00,40.00,6,4,16,0.14
2013-1-11,40,36,32,40,36,31,100,99,97,0.00,40.00,6,4,18,0.17
2013-1-12,42,27,13,42,22,5,100,81,69,0.00,40.00,11,7,28,0.06
2013-1-13,13,11,4,6,3,-2,77,72,64,0.00,40.00,6,4,13,0.04
2013-1-14,12,5,-1,2,-2,-5,81,74,64,0.00,40.00,7,4,15,0.00
2013-1-15,28,15,-1,12,5,-5,83,67,40,0.00,40.00,7,4,17,0.00
2013-1-16,26,21,11,23,13,1,93,72,56,0.00,40.00,8,6,21,0.02
2013-1-17,11,3,-6,3,-6,-11,79,66,46,0.00,40.00,7,4,17,0.01
2013-1-18,23,12,-7,20,8,-13,92,83,76,0.00,40.00,5,2,13,0.14
2013-1-19,36,22,2,29,18,-6,97,84,67,0.00,40.00,16,6,30,0.01
2013-1-20,6,-1,-8,-6,-10,-13,77,65,48,0.00,40.00,10,5,24,0.01
2013-1-21,-8,-13,-17,-13,-23,-30,77,59,41,0.00,40.00,9,5,19,0.00
2013-1-22,2,-11,-20,-18,-23,-28,67,56,37,0.00,40.00,6,4,13,0.00
2013-1-23,8,-7,-22,-2,-14,-29,77,69,58,0.00,40.00,12,4,22,0.00
2013-1-24,8,-3,-21,0,-13,-29,80,63,43,0.00,40.00,4,2,9,0.03
2013-1-25,16,10,5,9,5,0,84,79,67,0.00,40.00,6,4,15,0.12
2013-1-26,27,14,5,12,5,0,82,71,50,0.00,40.00,4,3,10,0.01
2013-1-27,31,24,18,26,15,7,96,71,48,0.00,40.00,5,4,14,0.20
2013-1-28,42,30,25,31,27,24,99,90,63,0.00,40.00,5,2,12,0.31
2013-1-29,35,31,28,35,30,26,100,95,88,0.00,40.00,10,5,17,0.35
2013-1-30,29,19,11,27,15,6,94,84,78,0.00,40.00,13,9,22,0.06
2013-1-31,11,5,1,7,-3,-6,85,71,61,0.00,40.00,11,7,21,0.03
2013-2-1,3,-5,-14,-6,-15,-21,74,62,44,0.00,40.00,6,4,13,0.01
2013-2-2,17,1,-14,1,-8,-21,82,65,43,0.00,40.00,4,2,12,0.00
2013-2-3,12,2,-12,0,-6,-18,79,68,47,0.00,40.00,9,4,22,0.00
2013-2-4,15,-5,-21,-4,-15,-29,81,64,29,0.00,40.00,6,2,11,0.00
2013-2-5,20,10,-7,13,4,-12,88,77,50,0.00,40.00,9,4,18,0.09
2013-2-6,22,8,-10,17,3,-16,92,79,59,0.00,40.00,4,2,9,0.08
2013-2-7,22,19,17,20,17,12,93,91,82,0.00,40.00,6,4,12,0.01
2013-2-8,28,11,-2,14,5,-6,88,78,52,0.00,40.00,7,2,15,0.00
2013-2-9,29,15,-4,18,9,-9,94,76,52,0.00,40.00,6,3,16,0.00
2013-2-10,31,26,19,31,26,18,100,96,93,0.00,40.00,7,4,20,0.27
2013-2-11,32,26,19,32,24,15,100,93,85,0.00,40.00,10,5,21,0.31
2013-2-12,22,18,13,19,14,11,93,85,74,0.00,40.00,6,3,11,0.04
2013-2-13,39,25,12,30,21,10,98,87,66,0.00,40.00,5,2,9,0.00
2013-2-14,29,23,14,27,19,8,96,83,67,0.00,40.00,9,6,17,0.04
2013-2-15,19,8,-4,8,1,-8,85,74,52,0.00,40.00,10,4,16,0.01
2013-2-16,17,0,-14,2,-8,-20,82,70,48,0.00,40.00,7,3,12,0.00
2013-2-17,27,4,-21,5,-9,-29,75,57,34,0.00,40.00,6,3,14,0.00
2013-2-18,34,25,15,29,19,5,97,77,61,0.00,40.00,8,5,18,0.06
2013-2-19,25,9,3,24,3,-7,94,75,56,0.00,40.00,14,10,26,0.03
2013-2-20,20,11,4,5,2,-3,79,67,51,0.00,40.00,12,8,24,0.00
2013-2-21,33,13,-9,16,5,-14,90,74,43,0.00,40.00,6,4,17,0.00
2013-2-22,26,20,15,22,17,13,94,89,82,0.00,40.00,7,4,16,0.21
2013-2-23,29,21,9,25,18,6,96,87,76,0.00,40.00,5,2,9,0.09
2013-2-24,33,25,19,24,20,18,95,84,57,0.00,40.00,4,2,7,0.03
2013-2-25,34,27,20,27,23,19,96,85,63,0.00,40.00,5,1,9,0.00
2013-2-26,37,27,17,26,22,16,97,81,52,0.00,40.00,6,4,15,0.00
2013-2-27,31,28,26,25,23,21,84,80,70,0.00,40.00,11,8,21,0.00
2013-2-28,28,24,18,24,17,11,89,76,60,0.00,40.00,11,8,24,0.00
2013-3-1,29,19,6,11,8,0,82,63,38,0.00,40.00,8,5,16,0.00
2013-3-2,29,12,-7,9,2,-12,87,66,35,0.00,40.00,8,3,15,0.00
2013-3-3,36,9,-13,10,-4,-19,85,60,23,0.00,40.00,5,2,10,0.00
2013-3-4,38,20,2,13,6,-1,85,59,29,0.00,40.00,6,3,16,0.00
2013-3-5,33,24,20,17,12,6,86,63,38,0.00,40.00,9,5,17,0.00
2013-3-6,33,23,8,19,15,5,91,73,47,0.00,40.00,9,5,15,0.00
2013-3-7,38,19,5,18,10,1,89,72,40,0.00,40.00,5,2,10,0.00
2013-3-8,45,25,8,21,15,5,90,70,37,0.00,40.00,7,4,16,0.00
2013-3-9,36,31,26,33,27,20,100,86,72,0.00,40.00,7,4,17,0.30
2013-3-10,33,31,26,33,29,24,100,91,80,0.00,40.00,10,6,25,0.21
2013-3-11,28,24,19,25,22,16,97,91,83,0.00,40.00,10,8,19,0.39
2013-3-12,24,19,16,17,15,11,90,82,65,0.00,40.00,12,6,24,0.01
2013-3-13,33,19,6,12,6,2,87,61,29,0.00,40.00,10,6,19,0.01
2013-3-14,38,16,-7,24,7,-12,85,70,32,0.00,40.00,6,2,13,0.00
2013-3-15,33,27,15,25,19,11,88,72,46,0.00,40.00,8,5,16,0.06
2013-3-16,25,16,7,12,7,2,85,68,49,0.00,40.00,8,5,19,0.09
2013-3-17,34,12,-13,5,-5,-19,83,52,21,0.00,40.00,7,4,19,0.01
2013-3-18,29,21,14,25,17,4,94,81,60,0.00,40.00,7,5,18,0.19
2013-3-19,29,18,12,13,6,-1,86,62,35,0.00,40.00,12,8,24,0.11
2013-3-20,18,12,2,6,0,-6,74,59,44,0.00,40.00,12,7,22,0.01
2013-3-21,29,16,5,11,7,2,86,70,44,0.00,40.00,7,4,17,0.00
2013-3-22,34,16,-6,20,8,-11,87,72,53,0.00,40.00,6,3,15,0.00
2013-3-23,36,26,20,21,18,15,87,71,53,0.00,40.00,5,3,10,0.00
2013-3-24,31,26,20,21,18,15,83,73,61,0.00,40.00,9,5,18,0.00
2013-3-25,36,25,15,23,18,13,92,75,49,0.00,40.00,10,7,21,0.00
2013-3-26,37,28,18,25,20,14,90,74,49,0.00,40.00,8,4,15,0.00
2013-3-27,44,33,26,21,17,12,79,55,32,0.00,40.00,9,4,18,0.00
2013-3-28,49,39,22,18,15,12,76,41,24,0.00,40.00,6,3,15,0.00
2013-3-29,55,32,11,23,16,9,92,60,21,0.00,40.00,5,2,11,0.00
2013-3-30,38,34,29,37,29,-100,100,88,50,0.00,40.00,6,3,15,0.60
2013-3-31,36,30,22,33,23,8,100,75,40,0.00,40.00,16,7,30,0.01
2013-4-1,30,22,18,10,5,1,70,48,30,0.00,40.00,11,7,24,0.00
2013-4-2,36,22,10,12,6,-1,82,53,25,0.00,40.00,11,5,21,0.00
2013-4-3,46,25,3,16,6,0,86,51,19,0.00,40.00,8,4,17,0.00
2013-4-4,48,38,25,28,20,11,72,47,30,0.00,40.00,11,6,21,0.00
2013-4-5,47,31,15,19,14,8,90,53,25,0.00,40.00,4,3,10,0.00
2013-4-6,43,34,28,36,30,19,100,85,56,0.00,40.00,6,5,16,0.47
2013-4-7,47,34,28,32,28,27,98,82,48,0.00,40.00,9,5,18,0.28
2013-4-8,39,34,28,37,33,27,100,97,91,0.00,40.00,5,2,10,0.62
2013-4-9,37,34,29,34,29,15,100,85,54,0.00,40.00,8,4,15,0.06
2013-4-10,44,35,28,22,16,12,70,48,32,0.00,40.00,8,5,19,0.00
2013-4-11,37,30,25,24,18,7,95,61,33,0.00,40.00,12,7,26,0.14
2013-4-12,42,28,25,29,24,21,95,86,60,0.00,40.00,7,4,17,0.35
2013-4-13,38,27,16,27,22,14,93,80,58,0.00,40.00,8,4,18,0.07
2013-4-14,42,26,9,30,20,6,97,82,46,0.00,40.00,7,4,19,0.80
2013-4-15,47,36,31,38,29,21,100,79,43,0.00,40.00,10,5,27,1.03
2013-4-16,44,37,30,30,25,21,85,64,41,0.00,40.00,9,5,16,0.02
2013-4-17,44,34,24,31,25,22,94,72,50,0.00,40.00,5,3,16,0.00
2013-4-18,35,33,31,33,32,31,99,97,87,0.00,40.00,7,5,14,0.57
2013-4-19,31,26,20,31,23,16,98,86,68,0.00,40.00,14,10,32,0.51
2013-4-20,39,23,6,16,12,3,91,66,33,0.00,40.00,8,4,17,0.01
2013-4-21,37,30,17,31,22,13,91,73,53,0.00,40.00,10,5,24,0.05
2013-4-22,40,36,31,38,35,30,100,96,91,0.00,40.00,7,4,17,0.59
2013-4-23,35,31,22,32,28,21,98,87,65,0.00,40.00,10,6,19,0.83
2013-4-24,49,33,14,27,19,12,97,61,34,0.00,40.00,8,3,20,0.01
2013-4-25,49,38,27,31,24,18,97,65,29,0.00,40.00,9,4,16,0.08
2013-4-26,65,45,27,36,32,23,98,65,31,0.00,40.00,7,4,17,0.07
2013-4-27,72,49,29,47,37,29,100,70,29,0.00,40.00,6,2,13,0.01
2013-4-28,70,54,38,46,41,37,98,66,33,0.00,40.00,8,4,18,0.00
2013-4-29,72,54,42,53,48,42,100,84,38,0.00,40.00,4,2,10,0.35
2013-4-30,80,67,46,57,46,33,100,53,26,0.00,40.00,9,5,20,0.02
2013-5-1,52,43,32,47,40,28,100,89,72,0.00,40.00,9,5,18,0.17
2013-5-2,33,30,28,31,28,25,96,93,88,0.00,40.00,9,8,19,0.24
2013-5-3,32,30,27,31,28,25,97,92,89,0.00,40.00,8,6,16,0.23
2013-5-4,62,42,32,45,37,31,100,84,51,0.00,40.00,9,4,15,0.02
2013-5-5,75,49,33,43,37,32,97,69,25,0.00,40.00,9,3,14,0.02
2013-5-6,77,56,32,45,35,28,99,57,17,0.00,40.00,5,2,12,0.00
2013-5-7,79,57,39,46,38,29,96,59,18,0.00,40.00,4,1,11,0.00
2013-5-8,78,62,40,47,39,33,99,53,20,0.00,40.00,7,2,13,0.00
2013-5-9,60,47,34,43,39,32,96,74,44,0.00,40.00,8,4,16,0.43
2013-5-10,63,44,31,34,24,-100,90,55,20,0.00,40.00,6,4,14,0.20
2013-5-11,44,38,32,35,28,-100,88,69,50,0.00,40.00,13,9,26,0.04
2013-5-12,46,36,29,29,20,13,91,55,27,0.00,40.00,12,8,25,0.01
2013-5-13,60,42,22,30,21,16,92,52,20,0.00,40.00,6,3,13,0.00
2013-5-14,82,58,39,49,39,28,84,52,24,0.00,40.00,7,4,15,0.00
2013-5-15,76,64,54,51,39,33,77,44,21,0.00,40.00,13,8,26,0.00
2013-5-16,74,54,49,47,21,-100,78,43,17,0.00,40.00,8,4,16,0.00
2013-5-17,75,58,48,51,35,-100,81,54,31,0.00,40.00,6,4,14,0.00
2013-5-18,74,59,50,60,53,47,97,83,57,0.00,40.00,7,4,15,0.12
2013-5-19,84,71,57,62,60,57,100,71,43,0.00,40.00,9,4,17,0.01
2013-5-20,77,66,57,64,58,53,98,77,43,0.00,40.00,7,4,19,0.07
2013-5-21,69,61,54,64,58,53,100,91,69,0.00,40.00,5,3,13,1.33
2013-5-22,54,50,46,53,48,44,100,94,84,0.00,40.00,10,6,17,0.72
2013-5-23,51,43,35,44,32,25,91,65,42,0.00,40.00,11,8,24,0.04
2013-5-24,67,48,29,40,31,26,99,59,24,0.00,40.00,4,2,11,0.00
2013-5-25,70,56,42,43,38,34,93,58,28,0.00,40.00,6,3,15,0.00
2013-5-26,72,56,39,45,34,28,98,52,21,0.00,40.00,6,3,15,0.00
2013-5-27,73,58,45,40,36,32,76,47,28,0.00,40.00,8,5,19,0.00
2013-5-28,58,55,52,53,47,40,98,77,53,0.00,40.00,5,3,14,0.01
2013-5-29,81,61,54,65,57,53,100,89,50,0.00,40.00,5,-338,9,0.01
2013-5-30,81,68,61,68,64,60,99,89,53,0.00,40.00,6,-506,20,12.52
2013-5-31,79,66,55,64,58,54,99,77,44,0.00,40.00,7,4,25,0.32
2013-6-1,63,55,41,58,52,-100,100,94,80,0.00,40.00,10,3,20,0.64
2013-6-2,58,46,39,42,37,32,98,75,37,0.00,40.00,9,6,22,0.12
2013-6-3,66,52,35,44,36,30,99,61,28,0.00,40.00,7,3,17,0.01
2013-6-4,62,53,43,50,42,35,93,67,42,0.00,40.00,3,1,11,0.01
2013-6-5,52,49,45,50,48,44,99,96,91,0.00,40.00,3,2,13,0.43
2013-6-6,55,50,47,51,48,46,99,94,86,0.00,40.00,2,1,10,0.30
2013-6-7,66,53,43,53,47,42,99,82,54,0.00,40.00,1,0,5,0.03
2013-6-8,70,59,50,53,50,45,99,75,41,0.00,40.00,4,2,14,0.03
2013-6-9,72,58,48,56,52,48,99,80,55,0.00,40.00,4,1,14,0.02
2013-6-10,77,68,55,62,58,54,96,71,51,0.00,40.00,3,1,10,0.02
2013-6-11,78,66,53,61,56,49,100,75,45,0.00,40.00,7,2,14,0.00
2013-6-12,80,66,49,59,52,48,99,66,34,0.00,40.00,5,2,12,0.00
2013-6-13,71,62,54,52,50,47,89,66,47,0.00,40.00,9,5,19,0.00
2013-6-14,79,62,44,58,48,43,99,67,30,0.00,40.00,4,1,12,0.00
2013-6-15,66,62,55,65,59,52,99,89,71,0.00,40.00,5,1,16,0.64
2013-6-16,79,65,55,59,54,46,100,74,31,0.00,40.00,9,3,22,0.54
2013-6-17,70,60,51,58,54,41,100,83,60,0.00,40.00,6,2,15,0.19
2013-6-18,74,59,40,50,41,37,95,57,29,0.00,40.00,3,1,13,0.01
2013-6-19,76,63,48,57,47,40,90,60,39,0.00,40.00,5,2,12,0.00
2013-6-20,79,64,58,66,58,54,97,81,59,0.00,40.00,3,1,11,0.47
2013-6-22,75,69,63,67,64,60,94,84,71,0.00,40.00,4,2,13,0.04
2013-6-23,82,72,63,68,64,62,96,77,54,0.00,40.00,7,3,20,0.06
2013-6-24,84,73,62,68,64,61,99,75,49,0.00,40.00,5,2,12,0.06
2013-6-25,88,75,63,67,65,61,99,74,45,0.00,40.00,4,1,9,0.00
2013-6-26,86,71,62,72,67,62,100,88,56,0.00,40.00,5,2,27,0.30
2013-6-27,78,68,62,67,65,62,100,91,60,0.00,40.00,4,1,22,1.77
2013-6-28,70,63,57,64,60,57,100,92,78,0.00,40.00,6,3,13,0.27
2013-6-29,70,62,53,59,54,47,96,77,50,0.00,40.00,10,6,17,0.03
2013-6-30,79,63,45,53,47,41,98,62,30,0.00,40.00,6,2,17,0.01
2013-7-1,79,66,50,55,50,46,99,62,32,0.00,40.00,7,3,16,0.00
2013-7-2,81,65,50,55,48,43,89,57,30,0.00,40.00,4,1,8,0.00
2013-7-3,84,66,48,58,50,44,99,62,28,0.00,40.00,5,2,14,0.00
2013-7-4,84,72,62,62,58,54,87,64,38,0.00,40.00,5,3,16,0.00
2013-7-5,86,75,63,59,57,54,84,56,33,0.00,40.00,6,3,19,0.00
2013-7-6,89,76,67,64,62,58,80,63,42,0.00,40.00,5,3,19,0.00
2013-7-7,85,76,65,72,67,63,97,75,56,0.00,40.00,6,2,18,0.39
2013-7-8,86,71,67,71,68,66,99,89,56,0.00,40.00,5,2,12,0.46
2013-7-9,76,71,65,73,68,65,100,92,79,0.00,40.00,5,2,20,0.34
2013-7-10,71,64,56,67,52,-100,98,70,48,0.00,40.00,11,6,24,0.13
2013-7-11,82,67,52,58,54,48,99,69,31,0.00,40.00,4,1,10,0.00
2013-7-12,83,71,59,60,57,55,94,64,39,0.00,40.00,7,3,20,0.00
2013-7-13,84,74,66,61,58,55,73,59,43,0.00,40.00,5,3,17,0.00
2013-7-14,86,75,65,66,61,57,95,64,43,0.00,40.00,6,2,16,0.00
2013-7-15,89,74,64,71,66,64,99,77,44,0.00,40.00,4,1,12,0.00
2013-7-16,91,85,77,71,69,66,79,60,46,0.00,40.00,6,3,17,0.00
2013-7-17,91,80,70,70,68,65,95,69,42,0.00,40.00,5,2,14,0.00
2013-7-18,91,84,72,70,68,66,89,61,44,0.00,40.00,7,4,23,0.00
2013-7-19,81,76,61,71,63,54,85,65,43,0.00,40.00,11,6,23,0.01
2013-7-20,72,64,57,58,49,-100,88,61,39,0.00,40.00,6,4,13,0.01
2013-7-21,75,63,54,58,52,44,91,68,54,0.00,40.00,4,2,11,0.00
2013-7-22,82,68,59,68,61,56,96,80,54,0.00,40.00,9,4,21,0.00
2013-7-23,67,59,50,56,48,44,94,69,44,0.00,40.00,10,5,24,0.00
2013-7-24,72,59,46,53,49,45,99,72,42,0.00,40.00,5,1,12,0.00
2013-7-25,80,65,51,62,56,50,99,75,45,0.00,40.00,5,2,16,0.00
2013-7-26,71,60,47,62,55,43,99,85,52,0.00,40.00,12,4,23,0.12
2013-7-27,57,50,45,48,45,42,95,83,63,0.00,40.00,7,4,13,0.02
2013-7-28,57,52,45,51,48,43,97,88,76,0.00,40.00,9,6,22,0.01
2013-7-29,77,59,42,56,48,41,99,73,40,0.00,40.00,5,2,12,0.01
2013-7-30,70,63,54,61,58,53,98,85,65,0.00,40.00,3,1,10,0.07
2013-7-31,74,65,53,62,58,48,98,78,48,0.00,40.00,9,2,16,0.05
2013-8-1,74,61,51,54,51,49,97,73,42,0.00,40.00,10,2,18,0.00
2013-8-2,72,62,51,55,51,46,99,71,40,0.00,40.00,9,4,20,0.02
2013-8-3,72,59,46,53,48,44,99,72,38,0.00,40.00,9,4,21,0.02
2013-8-4,74,59,44,53,46,42,99,69,36,0.00,40.00,3,1,9,0.00
2013-8-5,68,60,53,65,58,51,98,93,84,0.00,40.00,3,1,13,0.82
2013-8-6,77,66,60,64,60,56,98,84,50,0.00,40.00,4,2,14,0.56
2013-8-7,70,62,51,60,54,42,99,77,37,0.00,40.00,10,4,19,0.57
2013-8-8,73,59,46,59,52,46,99,81,43,0.00,40.00,6,2,17,0.03
2013-8-9,71,61,53,58,51,45,99,74,44,0.00,40.00,8,3,19,0.04
2013-8-10,71,60,49,55,52,48,99,76,50,0.00,40.00,5,1,11,0.01
2013-8-11,77,61,47,57,52,47,99,76,41,0.00,40.00,4,1,10,0.00
2013-8-12,72,62,47,62,54,45,99,78,48,0.00,40.00,10,4,20,0.13
2013-8-13,65,52,43,51,43,-100,99,75,45,0.00,40.00,9,4,17,0.06
2013-8-14,69,54,40,50,43,-100,99,75,39,0.00,40.00,7,2,15,0.00
2013-8-15,76,57,46,56,43,-100,99,71,36,0.00,40.00,6,2,14,0.00
2013-8-16,82,63,47,58,49,-100,99,71,34,0.00,40.00,3,1,10,0.00
2013-8-17,81,65,52,59,52,-100,99,71,38,0.00,40.00,5,2,13,0.00
2013-8-18,81,67,54,57,55,51,99,69,37,0.00,40.00,7,2,16,0.00
2013-8-19,81,67,59,65,55,-100,90,72,54,0.00,40.00,7,3,16,0.00
2013-8-20,87,74,62,68,65,61,97,75,51,0.00,40.00,6,3,16,0.00
2013-8-21,85,74,66,71,68,65,100,82,63,0.00,40.00,11,3,27,0.03
2013-8-22,80,68,56,67,54,46,100,68,31,0.00,40.00,6,2,13,0.03
2013-8-23,83,66,51,61,53,49,98,67,39,0.00,40.00,5,2,12,0.00
2013-8-24,81,70,61,66,57,-100,93,66,50,0.00,40.00,7,4,19,0.00
2013-8-25,93,81,71,72,69,65,87,69,46,0.00,40.00,7,5,21,0.00
2013-8-26,87,76,66,74,70,65,99,84,62,0.00,40.00,9,3,28,2.18
2013-8-27,80,72,69,75,71,68,100,96,81,0.00,40.00,6,1,28,1.91
2013-8-28,85,78,70,71,66,62,96,69,47,0.00,40.00,2,1,7,0.00
2013-8-29,81,72,67,69,68,66,99,88,64,0.00,40.00,5,2,28,1.72
2013-8-30,78,70,61,70,65,61,99,85,61,0.00,40.00,9,4,18,1.08
2013-8-31,83,67,56,65,59,-100,100,81,48,0.00,40.00,3,1,9,0.00
2013-9-1,72,67,59,65,61,56,94,81,61,0.00,40.00,9,5,19,0.00
2013-9-2,59,54,46,56,49,45,98,86,72,0.00,40.00,9,5,17,0.00
2013-9-3,74,58,42,55,48,42,99,76,43,0.00,40.00,5,2,13,0.00
2013-9-4,72,62,48,58,53,47,97,75,47,0.00,40.00,6,3,13,0.00
2013-9-5,76,58,43,54,48,43,99,75,38,0.00,40.00,3,1,9,0.00
2013-9-6,82,67,56,68,60,51,94,79,60,0.00,40.00,5,2,13,0.00
2013-9-7,83,69,57,69,62,-100,100,82,58,0.00,40.00,8,3,19,0.04
2013-9-8,74,61,49,53,50,48,97,70,42,0.00,40.00,5,2,14,0.01
2013-9-9,79,66,58,72,63,52,99,92,75,0.00,40.00,5,1,13,0.13
2013-9-10,77,70,64,70,66,61,100,87,64,0.00,40.00,5,2,16,0.02
2013-9-11,79,66,55,62,58,51,100,80,49,0.00,40.00,8,2,17,0.02
2013-9-12,63,56,47,55,49,43,96,79,57,0.00,40.00,10,5,21,0.00
2013-9-13,64,51,39,47,42,38,98,77,45,0.00,40.00,4,2,12,0.00
2013-9-14,69,54,42,54,45,-100,99,76,44,0.00,40.00,7,2,17,0.06
2013-9-15,56,51,39,55,48,37,99,90,77,0.00,40.00,8,3,18,0.27
2013-9-16,64,47,33,44,38,32,99,77,37,0.00,40.00,3,1,9,0.01
2013-9-17,69,54,41,51,45,40,99,72,45,0.00,40.00,5,3,15,0.00
2013-9-18,65,57,56,64,55,51,98,93,81,0.00,40.00,4,3,13,0.05
2013-9-19,78,67,62,69,66,62,100,94,74,0.00,40.00,6,2,19,0.30
2013-9-20,68,61,49,65,56,46,100,87,61,0.00,40.00,8,3,17,0.06
2013-9-21,53,47,37,46,40,-100,97,79,59,0.00,40.00,9,4,20,0.05
2013-9-22,64,46,33,46,40,32,99,81,45,0.00,40.00,3,1,10,0.00
2013-9-23,69,53,41,50,45,39,96,77,49,0.00,40.00,5,2,15,0.00
2013-9-24,74,55,43,54,49,42,100,83,45,0.00,40.00,3,1,10,0.00
2013-9-25,74,55,43,55,49,43,100,84,42,0.00,40.00,2,0,10,0.00
2013-9-26,74,56,44,53,49,44,100,80,41,0.00,40.00,4,2,14,0.00
2013-9-27,77,64,51,55,51,47,96,67,41,0.00,40.00,7,3,21,0.00
2013-9-28,75,61,52,62,51,-100,97,72,53,0.00,40.00,11,4,27,0.35
2013-9-29,70,55,43,50,45,39,99,74,34,0.00,40.00,5,2,15,0.19
2013-9-30,71,60,53,47,45,43,78,59,38,0.00,40.00,8,5,21,0.00
2013-10-1,60,57,53,37,35,34,51,44,40,0.00,40.00,2,1,10,0.00
2013-10-2,74,55,38,47,38,32,96,59,22,0.00,40.00,3,1,11,0.00
2013-10-3,62,54,47,55,51,45,98,88,67,0.00,40.00,4,2,15,1.00
2013-10-4,58,53,51,54,51,50,98,92,79,0.00,40.00,4,2,16,0.25
2013-10-5,55,53,51,55,52,50,100,99,97,0.00,40.00,5,3,16,0.96
2013-10-6,59,52,46,53,48,45,100,89,61,0.00,40.00,7,3,15,0.45
2013-10-7,58,47,39,45,41,36,99,82,44,0.00,40.00,7,3,19,0.11
2013-10-8,73,54,36,44,41,36,99,67,33,0.00,40.00,7,3,20,0.00
2013-10-9,72,61,49,49,46,43,92,60,39,0.00,40.00,7,3,20,0.00
2013-10-10,73,56,42,49,45,40,100,71,33,0.00,40.00,5,1,13,0.00
2013-10-11,72,58,45,54,49,44,100,76,49,0.00,40.00,6,3,22,0.00
2013-10-12,65,58,47,54,45,-100,79,65,45,0.00,40.00,7,4,22,0.00
2013-10-13,57,46,33,44,37,32,96,73,39,0.00,40.00,5,3,16,0.00
2013-10-14,57,43,31,42,34,30,99,74,45,0.00,40.00,3,1,12,0.00
2013-10-15,52,49,45,52,48,41,100,96,79,0.00,40.00,5,2,16,0.83
2013-10-16,49,42,31,49,40,31,99,91,77,0.00,40.00,8,4,19,0.36
2013-10-17,54,39,29,41,35,29,99,87,51,0.00,40.00,5,1,11,0.01
2013-10-18,42,39,30,42,38,29,99,94,83,0.00,40.00,8,2,17,0.24
2013-10-19,46,37,31,38,33,-100,99,88,56,0.00,40.00,4,2,16,0.08
2013-10-20,43,36,32,35,33,31,99,91,68,0.00,40.00,3,1,10,0.28
2013-10-21,34,32,29,34,27,20,99,85,63,0.00,40.00,6,4,18,0.23
2013-10-22,38,33,31,32,29,24,98,85,65,0.00,40.00,7,4,19,0.09
2013-10-23,37,32,28,28,24,19,87,74,48,0.00,40.00,7,3,18,0.01
2013-10-24,40,32,27,28,26,24,90,78,54,0.00,40.00,8,4,21,0.00
2013-10-25,47,36,26,36,27,22,96,72,48,0.00,40.00,6,3,21,0.01
2013-10-26,47,38,34,36,30,-100,93,75,59,0.00,40.00,10,5,26,0.07
2013-10-27,51,39,32,34,29,27,91,70,42,0.00,40.00,11,4,18,0.01
2013-10-28,41,31,26,32,18,-100,91,63,39,0.00,40.00,8,3,17,0.01
2013-10-29,35,30,23,33,25,19,97,83,58,0.00,40.00,3,1,9,0.06
2013-10-30,48,41,34,48,40,33,100,99,97,0.00,40.00,3,1,11,0.07
2013-10-31,52,49,45,52,49,44,100,100,96,0.00,40.00,7,2,16,0.08
2013-11-1,45,40,37,44,39,36,98,96,91,0.00,40.00,8,4,17,0.10
2013-11-2,38,35,31,36,33,-100,99,96,89,0.00,40.00,4,1,7,0.16
2013-11-3,46,37,31,35,33,31,99,86,59,0.00,40.00,6,-37,19,0.01
2013-11-4,45,42,39,42,38,33,98,85,71,0.00,40.00,6,5,20,0.12
2013-11-5,45,37,29,37,32,29,99,83,53,0.00,40.00,6,1,18,0.16
2013-11-6,33,31,28,32,28,21,98,89,75,0.00,40.00,8,5,17,0.40
2013-11-7,32,28,22,26,22,19,91,79,68,0.00,40.00,5,2,12,0.01
2013-11-8,37,29,20,32,25,19,98,83,62,0.00,40.00,4,2,15,0.09
2013-11-9,37,34,33,37,31,-100,99,90,78,0.00,40.00,8,4,18,0.25
2013-11-10,39,35,33,31,27,25,92,72,58,0.00,40.00,7,4,18,0.01
2013-11-11,33,23,20,31,16,8,97,73,53,0.00,40.00,12,8,24,0.03
2013-11-12,28,20,14,14,6,1,79,57,32,0.00,40.00,6,4,13,0.01
2013-11-13,48,32,18,28,19,5,71,60,44,0.00,40.00,7,4,23,0.00
2013-11-14,40,35,29,30,28,26,94,76,66,0.00,40.00,4,2,12,0.00
2013-11-15,51,36,26,37,32,25,99,86,56,0.00,40.00,4,1,11,0.00
2013-11-16,51,41,38,51,37,-100,100,88,72,0.00,40.00,6,3,16,0.60
2013-11-17,51,41,34,51,39,30,100,93,80,0.00,40.00,9,4,29,0.27
2013-11-18,34,27,25,31,19,15,91,72,63,0.00,40.00,10,7,27,0.04
2013-11-19,38,27,14,21,17,12,91,67,44,0.00,40.00,5,3,17,0.01
2013-11-20,37,33,31,31,25,20,98,74,53,0.00,40.00,6,4,20,0.27
2013-11-21,34,31,26,33,30,24,100,96,91,0.00,40.00,8,3,17,0.16
2013-11-22,31,23,15,24,15,6,92,71,44,0.00,40.00,10,5,19,0.08
2013-11-23,15,9,6,7,-1,-100,83,66,54,0.00,40.00,11,6,27,0.01
2013-11-24,21,10,-6,9,-1,-11,81,64,49,0.00,40.00,7,4,24,0.01
2013-11-25,33,28,21,24,20,9,83,70,58,0.00,40.00,7,4,22,0.00
2013-11-26,30,16,8,24,7,-1,83,66,51,0.00,40.00,11,5,21,0.00
2013-11-27,23,15,3,14,9,-1,88,76,51,0.00,40.00,5,2,10,0.01
2013-11-28,22,16,6,16,12,2,90,82,63,0.00,40.00,4,1,10,0.03
2013-11-29,26,19,6,17,14,2,91,80,64,0.00,40.00,6,2,18,0.01
2013-11-30,36,28,23,24,20,-100,90,74,60,0.00,40.00,6,2,15,0.00
2013-12-1,33,29,27,27,25,20,94,83,61,0.00,40.00,3,1,9,0.00
2013-12-2,33,29,22,26,24,20,93,82,75,0.00,40.00,4,2,15,0.00
2013-12-3,30,27,23,29,25,20,98,92,85,0.00,40.00,5,3,16,0.43
2013-12-4,33,28,23,33,27,20,99,95,88,0.00,40.00,4,2,14,0.73
2013-12-5,32,12,1,31,7,-5,97,79,68,0.00,40.00,0,-364,0,0.14
2013-12-6,8,-1,-8,-2,-8,-14,77,72,63,0.00,40.00,4,-598,11,0.00
2013-12-7,5,-6,-14,-6,-14,-100,75,69,57,0.00,40.00,4,2,13,0.00
2013-12-8,10,0,-15,4,-6,-22,83,75,67,0.00,40.00,2,0,8,0.02
2013-12-9,9,2,-10,5,-4,-17,84,74,62,0.00,40.00,8,3,20,0.02
2013-12-10,8,-2,-11,-2,-9,-17,77,72,63,0.00,40.00,4,2,15,0.02
2013-12-11,0,-7,-12,-11,-15,-19,76,68,53,0.00,40.00,5,3,12,0.01
2013-12-12,10,1,-10,2,-6,-17,80,72,62,0.00,40.00,3,2,11,0.00
2013-12-13,9,5,0,2,-2,-7,81,72,59,0.00,40.00,7,2,12,0.03
2013-12-14,19,10,1,10,3,-100,87,77,68,0.00,40.00,3,2,11,0.02
2013-12-15,12,-1,-17,8,-8,-24,82,70,56,0.00,40.00,8,4,18,0.01
2013-12-16,9,-3,-22,5,-9,-30,86,73,61,0.00,40.00,4,2,19,0.03
2013-12-17,24,16,8,21,12,5,91,85,72,0.00,40.00,7,3,15,0.01
2013-12-18,26,9,-4,13,3,-9,90,76,49,0.00,40.00,5,1,15,0.00
2013-12-19,20,15,5,16,9,2,91,79,67,0.00,40.00,6,3,17,0.00
2013-12-20,21,13,0,14,9,-5,89,83,74,0.00,40.00,3,1,10,0.02
2013-12-21,24,18,13,18,13,-100,90,85,76,0.00,40.00,4,1,7,0.00
2013-12-22,24,20,15,19,16,12,88,84,77,0.00,40.00,6,3,12,0.02
2013-12-23,15,10,-7,12,5,-13,87,79,65,0.00,40.00,3,1,8,0.01
2013-12-24,18,3,-12,6,-4,-19,83,71,53,0.00,40.00,5,2,15,0.01
2013-12-25,16,11,7,10,6,2,86,80,70,0.00,40.00,4,2,13,0.13
2013-12-26,14,8,-1,9,2,-5,88,79,66,0.00,40.00,3,1,9,0.03
2013-12-27,29,21,12,27,19,9,93,90,86,0.00,40.00,6,2,15,0.00
2013-12-28,35,29,23,32,27,-100,98,92,86,0.00,40.00,11,2,19,0.00
2013-12-29,23,4,-13,20,-3,-20,90,72,57,0.00,40.00,11,6,25,0.00
2013-12-30,0,-13,-26,-14,-22,-34,74,61,41,0.00,40.00,3,1,9,0.00
2013-12-31,-3,-13,-22,-16,-22,-30,74,66,49,0.00,40.00,5,1,13,0.00
2014-1-1,4,-6,-22,-7,-14,-30,77,67,56,0.00,40.00,3,1,7,0.00
2014-1-2,6,-6,-17,-7,-14,-24,78,68,53,0.00,40.00,7,2,13,0.00